Time;durP1;ratioP1;P1;durP2;ratioP2;P2;SDS_P1;SDS_P2;PMS_P1;PMS_P2;Temp;Humidity;BMP_temperature;BMP_pressure;BME280_temperature;BME280_humidity;BME280_pressure;Samples;Min_cycle;Max_cycle;Signal;HPM_P1;HPM_P2
2022/01/28 00:01:05;;;;;;;;;;;6.10;84.50;;;;;;5031573;28;19913;-81
2022/01/28 00:03:32;;;;;;;;;;;6.10;84.30;;;;;;5044919;28;19983;-81
2022/01/28 00:05:57;;;;;;;;;;;6.00;83.70;;;;;;5020225;28;19913;-81
2022/01/28 00:08:23;;;;;;;;;;;6.00;84.10;;;;;;5022646;28;19923;-81
2022/01/28 00:10:50;;;;;;;;;;;6.00;83.80;;;;;;5019342;28;19913;-80
2022/01/28 00:39:54;;;;;;;;;;;6.00;83.20;;;;;;5003611;28;19920;-81
2022/01/28 00:42:20;;;;;;;;;;;6.00;83.50;;;;;;5021182;28;19917;-81
2022/01/28 00:44:45;;;;;;;;;;;6.00;83.60;;;;;;5026835;28;20059;-80
2022/01/28 00:47:11;;;;;;;;;;;6.10;83.70;;;;;;5026245;28;19994;-81
2022/01/28 00:49:36;;;;;;;;;;;6.10;83.70;;;;;;5031683;28;19923;-81
2022/01/28 00:52:02;;;;;;;;;;;6.00;84.10;;;;;;5024061;28;19913;-80
2022/01/28 00:54:27;;;;;;;;;;;6.10;83.80;;;;;;5018060;28;20332;-80
2022/01/28 00:56:53;;;;;;;;;;;6.00;83.90;;;;;;5020789;28;19914;-80
2022/01/28 00:59:18;;;;;;;;;;;6.00;84.20;;;;;;5028336;28;19953;-80
2022/01/28 01:01:44;;;;;;;;;;;6.10;83.90;;;;;;5020864;28;19913;-81
2022/01/28 01:04:09;;;;;;;;;;;6.00;83.80;;;;;;5016445;28;19917;-81
2022/01/28 01:06:35;;;;;;;;;;;6.10;83.90;;;;;;5011666;28;19972;-81
2022/01/28 01:09:01;;;;;;;;;;;6.00;83.80;;;;;;5018661;28;19952;-81
2022/01/28 01:11:27;;;;;;;;;;;6.10;83.60;;;;;;5015593;28;19921;-81
2022/01/28 01:13:53;;;;;;;;;;;6.00;84.00;;;;;;5018389;28;20415;-80
2022/01/28 01:16:27;;;;;;;;;;;5.90;84.00;;;;;;5023558;28;19936;-80
2022/01/28 01:19:04;;;;;;;;;;;6.00;83.90;;;;;;5035471;28;20030;-80
2022/01/28 01:21:37;;;;;;;;;;;5.90;83.90;;;;;;5031986;28;19917;-81
2022/01/28 01:24:02;;;;;;;;;;;5.90;83.50;;;;;;5023942;28;19913;-81
2022/01/28 01:26:32;;;;;;;;;;;5.80;83.60;;;;;;5024489;28;20273;-81
2022/01/28 01:28:57;;;;;;;;;;;5.90;84.40;;;;;;5027189;28;19913;-80
2022/01/28 01:31:23;;;;;;;;;;;5.90;84.10;;;;;;5026997;28;19920;-80
2022/01/28 01:33:56;;;;;;;;;;;5.90;84.40;;;;;;5030405;28;19986;-81
2022/01/28 01:36:22;;;;;;;;;;;5.90;84.00;;;;;;5021555;28;19918;-80
2022/01/28 01:38:47;;;;;;;;;;;5.90;83.80;;;;;;5030943;28;20276;-81
2022/01/28 01:41:18;;;;;;;;;;;5.90;84.40;;;;;;5031841;28;19914;-80
2022/01/28 01:43:56;;;;;;;;;;;5.90;83.60;;;;;;5028145;28;19948;-80
2022/01/28 01:52:03;;;;;;;;;;;5.90;84.20;;;;;;5029194;28;19991;-81
2022/01/28 01:54:39;;;;;;;;;;;5.90;84.40;;;;;;5033353;28;20008;-81
2022/01/28 01:57:06;;;;;;;;;;;5.80;84.50;;;;;;5047100;28;19976;-80
2022/01/28 01:59:31;;;;;;;;;;;5.70;84.40;;;;;;5023917;28;19920;-80
2022/01/28 02:01:57;;;;;;;;;;;5.60;85.00;;;;;;5023419;28;19936;-81
2022/01/28 02:04:22;;;;;;;;;;;5.60;84.90;;;;;;5029073;28;19913;-80
2022/01/28 02:06:49;;;;;;;;;;;5.60;85.30;;;;;;5026235;28;19921;-80
2022/01/28 02:09:14;;;;;;;;;;;5.60;85.50;;;;;;5021295;28;19917;-80
2022/01/28 02:11:40;;;;;;;;;;;5.60;85.60;;;;;;5025666;28;20379;-81
2022/01/28 02:14:06;;;;;;;;;;;5.60;85.70;;;;;;5016220;28;19977;-80
2022/01/28 02:16:32;;;;;;;;;;;5.60;85.50;;;;;;5026021;28;20017;-80
2022/01/28 02:18:57;;;;;;;;;;;5.70;85.00;;;;;;5031971;28;19915;-80
2022/01/28 02:21:23;;;;;;;;;;;5.80;84.50;;;;;;5020936;28;20428;-81
2022/01/28 02:23:54;;;;;;;;;;;5.70;84.70;;;;;;5014019;28;20077;-81
2022/01/28 02:26:19;;;;;;;;;;;5.70;84.80;;;;;;5021141;28;20012;-80
2022/01/28 02:28:52;;;;;;;;;;;5.70;85.60;;;;;;5031365;28;19952;-81
2022/01/28 02:31:22;;;;;;;;;;;5.80;84.90;;;;;;5023122;28;19923;-81
2022/01/28 02:33:49;;;;;;;;;;;5.70;85.10;;;;;;5029142;28;20296;-80
2022/01/28 02:36:14;;;;;;;;;;;5.70;85.30;;;;;;5032389;28;19921;-82
2022/01/28 02:38:40;;;;;;;;;;;5.60;86.00;;;;;;5029830;28;19921;-81
2022/01/28 02:41:06;;;;;;;;;;;5.60;86.00;;;;;;5038104;28;19924;-82
2022/01/28 02:43:48;;;;;;;;;;;5.60;86.50;;;;;;5026850;28;20423;-81
2022/01/28 02:46:16;;;;;;;;;;;5.60;86.00;;;;;;5026563;28;20007;-81
2022/01/28 02:48:53;;;;;;;;;;;5.60;86.80;;;;;;5023679;28;19928;-82
2022/01/28 02:51:20;;;;;;;;;;;5.60;86.40;;;;;;5026066;28;20507;-81
2022/01/28 02:53:54;;;;;;;;;;;5.60;86.60;;;;;;5027468;28;19967;-81
2022/01/28 02:56:21;;;;;;;;;;;5.60;86.20;;;;;;5019744;28;20326;-81
2022/01/28 02:58:47;;;;;;;;;;;5.50;86.10;;;;;;5028239;28;19925;-80
2022/01/28 03:01:14;;;;;;;;;;;5.60;85.80;;;;;;5038876;28;19925;-82
2022/01/28 03:03:44;;;;;;;;;;;5.60;86.20;;;;;;5015106;28;19956;-81
2022/01/28 03:06:10;;;;;;;;;;;5.60;86.20;;;;;;5015741;28;19933;-81
2022/01/28 03:08:36;;;;;;;;;;;5.60;86.40;;;;;;5021019;28;19917;-82
2022/01/28 03:14:16;;;;;;;;;;;5.60;85.90;;;;;;5026597;28;20009;-81
2022/01/28 03:16:16;;;;;;;;;;;5.60;86.40;;;;;;5016359;28;19917;-81
2022/01/28 03:18:58;;;;;;;;;;;5.50;86.30;;;;;;5029416;28;20088;-80
2022/01/28 03:23:49;;;;;;;;;;;5.50;85.80;;;;;;5018341;28;19914;-81
2022/01/28 03:26:15;;;;;;;;;;;5.60;85.30;;;;;;5014098;28;20458;-81
2022/01/28 03:28:41;;;;;;;;;;;5.60;85.30;;;;;;5018731;28;19924;-81
2022/01/28 03:31:07;;;;;;;;;;;5.50;85.60;;;;;;5017905;28;19948;-81
2022/01/28 03:33:32;;;;;;;;;;;5.50;85.20;;;;;;5030219;28;20311;-80
2022/01/28 03:36:01;;;;;;;;;;;5.50;85.00;;;;;;5026506;28;19925;-80
2022/01/28 03:38:26;;;;;;;;;;;5.50;85.50;;;;;;5025629;28;19920;-79
2022/01/28 03:40:55;;;;;;;;;;;5.60;84.80;;;;;;5032508;28;19937;-79
2022/01/28 03:43:20;;;;;;;;;;;5.50;85.20;;;;;;5040001;28;19912;-79
2022/01/28 03:45:45;;;;;;;;;;;5.60;84.30;;;;;;5040697;28;19913;-80
2022/01/28 03:48:11;;;;;;;;;;;5.50;84.90;;;;;;5024131;28;19914;-80
2022/01/28 03:50:36;;;;;;;;;;;5.50;84.70;;;;;;5036075;28;19944;-80
2022/01/28 03:53:02;;;;;;;;;;;5.50;84.80;;;;;;5019397;28;19913;-80
2022/01/28 03:55:28;;;;;;;;;;;5.60;84.80;;;;;;5017934;28;19917;-81
2022/01/28 03:57:53;;;;;;;;;;;5.50;84.60;;;;;;5026893;28;19913;-80
2022/01/28 04:00:19;;;;;;;;;;;5.50;84.90;;;;;;5028075;28;19940;-80
2022/01/28 04:02:46;;;;;;;;;;;5.50;84.60;;;;;;5015675;28;19917;-81
2022/01/28 04:06:17;;;;;;;;;;;5.50;84.70;;;;;;5022249;28;19913;-81
2022/01/28 04:13:50;;;;;;;;;;;5.50;85.20;;;;;;5025793;28;19983;-80
2022/01/28 04:18:48;;;;;;;;;;;5.50;85.20;;;;;;5014722;28;19917;-80
2022/01/28 04:21:14;;;;;;;;;;;5.40;84.70;;;;;;5021016;28;20343;-80
2022/01/28 04:23:39;;;;;;;;;;;5.40;84.50;;;;;;5026691;28;19932;-80
2022/01/28 04:26:05;;;;;;;;;;;5.40;85.00;;;;;;5023230;28;19913;-80
2022/01/28 04:28:30;;;;;;;;;;;5.40;85.30;;;;;;5020420;28;19936;-79
2022/01/28 04:30:56;;;;;;;;;;;5.40;85.00;;;;;;5025697;28;19960;-79
2022/01/28 04:33:21;;;;;;;;;;;5.50;85.00;;;;;;5014568;28;19944;-80
2022/01/28 04:35:50;;;;;;;;;;;5.50;85.00;;;;;;5031796;28;19918;-80
2022/01/28 04:41:04;;;;;;;;;;;5.60;84.90;;;;;;5028757;28;20295;-81
2022/01/28 04:43:39;;;;;;;;;;;5.50;84.70;;;;;;5018657;28;19944;-80
2022/01/28 04:46:22;;;;;;;;;;;5.60;84.80;;;;;;5025132;28;19991;-80
2022/01/28 04:49:03;;;;;;;;;;;5.60;85.10;;;;;;5026309;28;20264;-80
2022/01/28 04:52:08;;;;;;;;;;;5.50;85.40;;;;;;5025702;28;19913;-79
2022/01/28 04:55:05;;;;;;;;;;;5.50;85.20;;;;;;5025064;28;19929;-79
2022/01/28 04:57:44;;;;;;;;;;;5.50;85.20;;;;;;5017929;28;19921;-81
2022/01/28 05:13:41;;;;;;;;;;;5.50;85.80;;;;;;5019960;28;20276;-81
2022/01/28 05:24:13;;;;;;;;;;;5.50;85.20;;;;;;5022473;28;19920;-81
2022/01/28 05:26:41;;;;;;;;;;;5.50;84.50;;;;;;5020807;28;19918;-80
2022/01/28 05:29:07;;;;;;;;;;;5.50;85.00;;;;;;5027007;28;19913;-81
2022/01/28 05:31:32;;;;;;;;;;;5.40;84.70;;;;;;5020954;28;20295;-80
2022/01/28 05:33:58;;;;;;;;;;;5.40;85.40;;;;;;5026691;28;19913;-80
2022/01/28 05:36:24;;;;;;;;;;;5.40;84.80;;;;;;5027678;28;19917;-81
2022/01/28 05:38:50;;;;;;;;;;;5.40;84.40;;;;;;5023795;28;19914;-81
2022/01/28 05:41:15;;;;;;;;;;;5.30;84.90;;;;;;5024318;28;19964;-81
2022/01/28 05:43:41;;;;;;;;;;;5.20;85.20;;;;;;5018273;28;19920;-81
2022/01/28 05:46:08;;;;;;;;;;;5.20;85.30;;;;;;5021478;28;20336;-81
2022/01/28 05:48:33;;;;;;;;;;;5.10;85.10;;;;;;5027844;28;19928;-80
2022/01/28 05:50:59;;;;;;;;;;;5.20;85.20;;;;;;5024455;28;19913;-80
2022/01/28 05:53:24;;;;;;;;;;;5.20;85.20;;;;;;5023791;28;20395;-81
2022/01/28 05:55:49;;;;;;;;;;;5.10;85.10;;;;;;5025037;28;20020;-81
2022/01/28 05:58:15;;;;;;;;;;;5.10;85.20;;;;;;5025933;28;19917;-81
2022/01/28 06:00:41;;;;;;;;;;;5.20;85.60;;;;;;5020068;28;19943;-81
2022/01/28 06:03:07;;;;;;;;;;;5.20;85.80;;;;;;5028224;28;19952;-81
2022/01/28 06:05:33;;;;;;;;;;;5.20;85.50;;;;;;5020479;28;19928;-82
2022/01/28 06:07:58;;;;;;;;;;;5.20;84.90;;;;;;5023270;28;20051;-81
2022/01/28 06:10:24;;;;;;;;;;;5.20;84.70;;;;;;5020202;28;19952;-81
2022/01/28 06:12:50;;;;;;;;;;;5.30;85.20;;;;;;5030718;28;19936;-85
2022/01/28 06:15:16;;;;;;;;;;;5.30;84.80;;;;;;5018659;28;19917;-81
2022/01/28 06:17:42;;;;;;;;;;;5.30;85.00;;;;;;5016454;28;19922;-78
2022/01/28 06:20:08;;;;;;;;;;;5.20;84.80;;;;;;5023397;28;19913;-79
2022/01/28 06:22:38;;;;;;;;;;;5.20;84.80;;;;;;5046257;28;19921;-79
2022/01/28 06:25:04;;;;;;;;;;;5.10;84.90;;;;;;5017398;28;20462;-80
2022/01/28 06:27:29;;;;;;;;;;;5.10;85.30;;;;;;5033713;28;19917;-78
2022/01/28 06:29:55;;;;;;;;;;;5.10;85.50;;;;;;5037307;28;19913;-79
2022/01/28 06:32:20;;;;;;;;;;;5.20;85.10;;;;;;5024792;28;19913;-80
2022/01/28 06:34:46;;;;;;;;;;;5.20;84.80;;;;;;5030368;28;19921;-80
2022/01/28 06:37:11;;;;;;;;;;;5.20;85.10;;;;;;5026257;28;19996;-79
2022/01/28 06:39:37;;;;;;;;;;;5.30;85.50;;;;;;5025593;28;19917;-79
2022/01/28 06:42:02;;;;;;;;;;;5.30;85.70;;;;;;5024948;28;19910;-82
2022/01/28 06:44:30;;;;;;;;;;;5.20;86.00;;;;;;5032316;28;19920;-83
2022/01/28 06:46:55;;;;;;;;;;;5.20;86.20;;;;;;5020272;28;19940;-83
2022/01/28 06:49:21;;;;;;;;;;;5.20;86.00;;;;;;5022308;28;20377;-80
2022/01/28 06:51:46;;;;;;;;;;;5.20;85.50;;;;;;5026969;28;20296;-81
2022/01/28 06:54:12;;;;;;;;;;;5.20;85.20;;;;;;5016081;28;19956;-81
2022/01/28 06:56:37;;;;;;;;;;;5.20;85.40;;;;;;5021519;28;19921;-81
2022/01/28 06:59:03;;;;;;;;;;;5.20;85.30;;;;;;5030855;28;19913;-79
2022/01/28 07:01:29;;;;;;;;;;;5.20;85.50;;;;;;5030662;28;19916;-81
2022/01/28 07:03:54;;;;;;;;;;;5.20;85.80;;;;;;5033119;28;20364;-81
2022/01/28 07:06:21;;;;;;;;;;;5.20;85.20;;;;;;5014339;28;19969;-80
2022/01/28 07:08:47;;;;;;;;;;;5.10;85.60;;;;;;5015344;28;20380;-81
2022/01/28 07:11:12;;;;;;;;;;;5.20;85.50;;;;;;5015095;28;19909;-80
2022/01/28 07:13:38;;;;;;;;;;;5.10;85.30;;;;;;5023079;28;19909;-80
2022/01/28 07:16:03;;;;;;;;;;;5.00;85.30;;;;;;5033902;28;19917;-82
2022/01/28 07:18:29;;;;;;;;;;;5.00;86.00;;;;;;5028415;28;19955;-80
2022/01/28 07:20:54;;;;;;;;;;;5.00;86.00;;;;;;5031513;28;20008;-81
2022/01/28 07:23:20;;;;;;;;;;;5.00;86.50;;;;;;5032673;28;19920;-79
2022/01/28 07:25:45;;;;;;;;;;;5.00;86.30;;;;;;5021228;28;19991;-87
2022/01/28 07:28:11;;;;;;;;;;;5.10;86.40;;;;;;5022604;28;19923;-82
2022/01/28 07:30:36;;;;;;;;;;;5.10;86.30;;;;;;5020810;28;20371;-81
2022/01/28 07:33:05;;;;;;;;;;;5.20;86.30;;;;;;5016931;28;20363;-80
2022/01/28 07:35:31;;;;;;;;;;;5.10;86.10;;;;;;5015205;28;20284;-81
2022/01/28 07:37:56;;;;;;;;;;;5.20;86.30;;;;;;5028542;28;19966;-81
2022/01/28 07:40:22;;;;;;;;;;;5.20;86.30;;;;;;5012874;28;19967;-84
2022/01/28 07:42:47;;;;;;;;;;;5.20;86.30;;;;;;5026853;28;19989;-83
2022/01/28 07:45:14;;;;;;;;;;;5.30;86.40;;;;;;5028766;28;19924;-83
2022/01/28 07:47:39;;;;;;;;;;;5.30;86.40;;;;;;5011333;28;20448;-84
2022/01/28 07:50:06;;;;;;;;;;;5.40;86.10;;;;;;5012524;28;20052;-83
2022/01/28 07:52:31;;;;;;;;;;;5.30;86.40;;;;;;5027258;28;19932;-83
2022/01/28 07:54:57;;;;;;;;;;;5.40;86.30;;;;;;5037592;28;19918;-83
2022/01/28 07:57:22;;;;;;;;;;;5.40;86.30;;;;;;5047600;28;19920;-83
2022/01/28 07:59:48;;;;;;;;;;;5.40;85.90;;;;;;5035659;28;19913;-82
2022/01/28 08:02:13;;;;;;;;;;;5.40;86.00;;;;;;5029347;28;19921;-81
2022/01/28 08:04:39;;;;;;;;;;;5.50;85.80;;;;;;5033961;28;19921;-82
2022/01/28 08:07:05;;;;;;;;;;;5.50;85.70;;;;;;5031902;28;19920;-84
2022/01/28 08:09:30;;;;;;;;;;;5.50;85.50;;;;;;5020143;28;19961;-84
2022/01/28 08:11:55;;;;;;;;;;;5.50;86.10;;;;;;5024167;28;19960;-83
2022/01/28 08:14:21;;;;;;;;;;;5.50;86.10;;;;;;5033838;28;19913;-83
2022/01/28 08:16:46;;;;;;;;;;;5.50;85.60;;;;;;5030408;28;20003;-84
2022/01/28 08:19:12;;;;;;;;;;;5.50;86.00;;;;;;5023687;28;19932;-82
2022/01/28 08:21:37;;;;;;;;;;;5.60;85.70;;;;;;5021967;28;19924;-82
2022/01/28 08:24:03;;;;;;;;;;;5.60;85.60;;;;;;5022296;28;19992;-83
2022/01/28 08:26:28;;;;;;;;;;;5.60;85.80;;;;;;5028836;28;19913;-83
2022/01/28 08:28:54;;;;;;;;;;;5.60;85.70;;;;;;5026328;28;19959;-82
2022/01/28 08:31:20;;;;;;;;;;;5.60;85.70;;;;;;5027570;28;19925;-83
2022/01/28 08:33:45;;;;;;;;;;;5.60;85.90;;;;;;5036857;28;19947;-84
2022/01/28 08:36:11;;;;;;;;;;;5.60;85.30;;;;;;5032941;28;19921;-81
2022/01/28 08:38:44;;;;;;;;;;;5.60;84.80;;;;;;5027636;28;20000;-81
2022/01/28 08:41:11;;;;;;;;;;;5.60;85.30;;;;;;5031468;28;20022;-83
2022/01/28 08:43:37;;;;;;;;;;;5.70;85.10;;;;;;5024474;28;19979;-83
2022/01/28 08:46:04;;;;;;;;;;;5.70;85.10;;;;;;5029836;28;20202;-82
2022/01/28 08:48:29;;;;;;;;;;;5.70;85.40;;;;;;5031085;28;20084;-81
2022/01/28 08:50:55;;;;;;;;;;;5.70;85.10;;;;;;5023243;28;20315;-84
2022/01/28 08:53:20;;;;;;;;;;;5.60;84.90;;;;;;5027061;28;20553;-83
2022/01/28 08:55:46;;;;;;;;;;;5.60;84.50;;;;;;5028080;28;19960;-79
2022/01/28 08:58:11;;;;;;;;;;;5.60;84.70;;;;;;5027656;28;20095;-82
2022/01/28 09:00:37;;;;;;;;;;;5.70;84.50;;;;;;5031851;28;19913;-80
2022/01/28 09:03:03;;;;;;;;;;;5.70;84.50;;;;;;5030353;28;19913;-79
2022/01/28 09:05:29;;;;;;;;;;;5.70;83.90;;;;;;5020355;28;20356;-79
2022/01/28 09:07:55;;;;;;;;;;;5.70;83.90;;;;;;5029915;28;19913;-80
2022/01/28 09:10:25;;;;;;;;;;;5.70;83.60;;;;;;5026900;28;20016;-79
2022/01/28 09:15:31;;;;;;;;;;;5.60;84.30;;;;;;5032263;28;19917;-80
2022/01/28 09:17:57;;;;;;;;;;;5.60;84.10;;;;;;5028364;28;20352;-81
2022/01/28 09:20:23;;;;;;;;;;;5.60;84.60;;;;;;5015993;28;20355;-81
2022/01/28 09:22:48;;;;;;;;;;;5.60;84.20;;;;;;5033078;28;20371;-76
2022/01/28 09:25:14;;;;;;;;;;;5.60;83.90;;;;;;5028092;28;19917;-82
2022/01/28 09:27:39;;;;;;;;;;;5.60;84.20;;;;;;5030713;28;19912;-83
2022/01/28 09:30:05;;;;;;;;;;;5.70;83.80;;;;;;5020215;28;19916;-81
2022/01/28 09:32:31;;;;;;;;;;;5.70;83.70;;;;;;5022667;28;20402;-81
2022/01/28 09:34:56;;;;;;;;;;;5.80;83.80;;;;;;5024894;28;19914;-80
2022/01/28 09:37:22;;;;;;;;;;;5.80;84.00;;;;;;5030598;28;19920;-80
2022/01/28 09:39:48;;;;;;;;;;;5.90;84.30;;;;;;5013900;28;19949;-80
2022/01/28 09:42:16;;;;;;;;;;;5.90;82.70;;;;;;5023184;28;19966;-82
2022/01/28 09:44:42;;;;;;;;;;;5.90;82.90;;;;;;5024121;28;19920;-81
2022/01/28 09:47:10;;;;;;;;;;;5.90;82.90;;;;;;5015120;28;19978;-81
2022/01/28 09:49:37;;;;;;;;;;;6.00;81.70;;;;;;5013885;28;20475;-81
2022/01/28 09:52:03;;;;;;;;;;;6.00;82.00;;;;;;5012638;28;19949;-80
2022/01/28 09:54:29;;;;;;;;;;;6.00;82.20;;;;;;5024457;28;19921;-80
2022/01/28 09:56:54;;;;;;;;;;;6.00;81.80;;;;;;5049161;28;19913;-81
2022/01/28 09:59:20;;;;;;;;;;;5.90;81.80;;;;;;5031743;28;20043;-81
2022/01/28 10:01:52;;;;;;;;;;;6.00;81.40;;;;;;5040883;28;19963;-81
2022/01/28 10:04:18;;;;;;;;;;;6.00;81.40;;;;;;5023997;28;20470;-82
2022/01/28 10:06:44;;;;;;;;;;;6.10;81.00;;;;;;5023891;28;19917;-85
2022/01/28 10:09:10;;;;;;;;;;;6.00;80.10;;;;;;5018378;28;19924;-85
2022/01/28 10:11:38;;;;;;;;;;;6.10;80.60;;;;;;5029408;28;19928;-82
2022/01/28 10:14:14;;;;;;;;;;;6.00;80.70;;;;;;5021836;28;20365;-81
2022/01/28 10:16:39;;;;;;;;;;;6.10;80.80;;;;;;5022844;28;20346;-81
2022/01/28 10:19:06;;;;;;;;;;;6.10;80.70;;;;;;5031723;28;19913;-82
2022/01/28 10:21:31;;;;;;;;;;;6.20;79.40;;;;;;5037820;28;19932;-79
2022/01/28 10:23:58;;;;;;;;;;;6.20;78.50;;;;;;5024851;28;19913;-80
2022/01/28 10:26:29;;;;;;;;;;;6.30;77.80;;;;;;5024353;28;19913;-79
2022/01/28 10:28:55;;;;;;;;;;;6.20;77.90;;;;;;5024630;28;20375;-79
2022/01/28 10:31:20;;;;;;;;;;;6.30;77.70;;;;;;5030908;28;19917;-82
2022/01/28 10:33:46;;;;;;;;;;;6.40;76.00;;;;;;5023848;28;19917;-80
2022/01/28 10:36:11;;;;;;;;;;;6.40;75.90;;;;;;5022440;28;20327;-82
2022/01/28 10:38:38;;;;;;;;;;;6.40;74.00;;;;;;5023645;28;19924;-82
2022/01/28 10:41:06;;;;;;;;;;;6.40;74.00;;;;;;5024157;28;19980;-80
2022/01/28 10:43:31;;;;;;;;;;;6.50;74.70;;;;;;5057365;28;19924;-80
2022/01/28 10:46:04;;;;;;;;;;;6.60;73.40;;;;;;5029559;28;19913;-80
2022/01/28 10:48:29;;;;;;;;;;;6.60;75.90;;;;;;5030233;28;19944;-80
2022/01/28 10:50:57;;;;;;;;;;;6.70;72.80;;;;;;5024974;28;20386;-81
2022/01/28 10:53:25;;;;;;;;;;;6.70;72.20;;;;;;5038244;28;20004;-80
2022/01/28 10:55:57;;;;;;;;;;;6.70;73.00;;;;;;5028144;28;19921;-79
2022/01/28 10:58:24;;;;;;;;;;;6.70;72.30;;;;;;5032127;28;20055;-80
2022/01/28 11:00:53;;;;;;;;;;;6.80;73.20;;;;;;5016441;28;19989;-80
2022/01/28 11:03:26;;;;;;;;;;;6.80;72.30;;;;;;5028968;28;19917;-79
2022/01/28 11:05:54;;;;;;;;;;;7.00;71.50;;;;;;5031927;28;19924;-80
2022/01/28 11:08:19;;;;;;;;;;;7.00;71.70;;;;;;5032553;28;19936;-79
2022/01/28 11:10:45;;;;;;;;;;;7.00;70.90;;;;;;5028532;28;19913;-79
2022/01/28 11:13:10;;;;;;;;;;;7.10;69.00;;;;;;5027138;28;19917;-78
2022/01/28 11:15:36;;;;;;;;;;;7.10;72.00;;;;;;5024883;28;19971;-79
2022/01/28 11:18:04;;;;;;;;;;;7.10;70.60;;;;;;5023256;28;19929;-80
2022/01/28 11:20:41;;;;;;;;;;;7.10;70.60;;;;;;5028723;28;19933;-79
2022/01/28 11:23:10;;;;;;;;;;;7.30;68.60;;;;;;5028750;28;19917;-79
2022/01/28 11:25:42;;;;;;;;;;;7.30;69.30;;;;;;5028951;28;19921;-79
2022/01/28 11:28:11;;;;;;;;;;;7.40;67.40;;;;;;5023631;28;19921;-80
2022/01/28 11:30:44;;;;;;;;;;;7.50;67.50;;;;;;5029936;28;20039;-78
2022/01/28 11:33:11;;;;;;;;;;;7.50;68.80;;;;;;5041034;28;19913;-79
2022/01/28 11:35:40;;;;;;;;;;;7.60;67.70;;;;;;5035592;28;19917;-82
2022/01/28 11:38:30;;;;;;;;;;;7.60;67.20;;;;;;5028232;28;20000;-81
2022/01/28 11:40:57;;;;;;;;;;;7.70;67.00;;;;;;5024435;28;20338;-79
2022/01/28 11:43:30;;;;;;;;;;;7.70;67.90;;;;;;5038566;28;19914;-80
2022/01/28 11:46:05;;;;;;;;;;;7.80;68.20;;;;;;5044222;28;19960;-80
2022/01/28 11:48:49;;;;;;;;;;;7.80;68.00;;;;;;5032503;28;19917;-81
2022/01/28 11:51:15;;;;;;;;;;;7.90;68.40;;;;;;5036217;28;19913;-81
2022/01/28 11:53:57;;;;;;;;;;;7.80;66.60;;;;;;5027997;28;19917;-80
2022/01/28 11:56:24;;;;;;;;;;;7.80;66.90;;;;;;5030149;28;20380;-80
2022/01/28 11:58:54;;;;;;;;;;;7.60;66.70;;;;;;5026481;28;20222;-80
2022/01/28 12:01:46;;;;;;;;;;;7.40;66.90;;;;;;5029787;28;19920;-79
2022/01/28 12:04:23;;;;;;;;;;;7.40;67.00;;;;;;5020812;28;19917;-80
2022/01/28 12:07:15;;;;;;;;;;;7.20;67.30;;;;;;5027146;28;20368;-81
2022/01/28 12:09:42;;;;;;;;;;;7.30;68.20;;;;;;5011488;28;19921;-82
2022/01/28 12:12:10;;;;;;;;;;;7.30;68.80;;;;;;5032605;28;19917;-82
2022/01/28 12:15:02;;;;;;;;;;;7.40;67.70;;;;;;5031984;28;19971;-82
2022/01/28 12:17:31;;;;;;;;;;;7.40;66.60;;;;;;5022054;28;19929;-82
2022/01/28 12:20:11;;;;;;;;;;;7.50;68.00;;;;;;5028785;28;19925;-82
2022/01/28 12:22:56;;;;;;;;;;;7.70;66.50;;;;;;5018866;28;19964;-81
2022/01/28 12:25:36;;;;;;;;;;;7.70;66.50;;;;;;5038245;28;19992;-83
2022/01/28 12:28:18;;;;;;;;;;;7.90;67.80;;;;;;5037727;28;20004;-80
2022/01/28 12:30:46;;;;;;;;;;;8.10;65.40;;;;;;5031780;28;20259;-82
2022/01/28 12:33:11;;;;;;;;;;;8.00;65.70;;;;;;5028081;28;19971;-82
2022/01/28 12:35:37;;;;;;;;;;;7.90;64.80;;;;;;5029006;28;19917;-81
2022/01/28 12:38:04;;;;;;;;;;;7.80;66.80;;;;;;5023201;28;19951;-81
2022/01/28 12:40:36;;;;;;;;;;;7.70;66.00;;;;;;5021816;28;20399;-82
2022/01/28 12:43:04;;;;;;;;;;;7.60;65.10;;;;;;5022909;28;19935;-81
2022/01/28 12:45:30;;;;;;;;;;;7.50;65.60;;;;;;5019551;28;19913;-82
2022/01/28 12:47:56;;;;;;;;;;;7.20;65.50;;;;;;5031426;28;19924;-82
2022/01/28 12:50:22;;;;;;;;;;;7.10;66.30;;;;;;5038988;28;19928;-82
2022/01/28 12:52:47;;;;;;;;;;;7.20;65.40;;;;;;5023027;28;20384;-84
2022/01/28 12:55:13;;;;;;;;;;;7.10;66.40;;;;;;5019149;28;19921;-81
2022/01/28 12:57:42;;;;;;;;;;;7.00;66.80;;;;;;5019579;28;19966;-80
2022/01/28 13:00:08;;;;;;;;;;;7.00;67.80;;;;;;5024365;28;19940;-83
2022/01/28 13:02:34;;;;;;;;;;;7.20;66.70;;;;;;5028674;28;19921;-83
2022/01/28 13:05:12;;;;;;;;;;;7.20;67.70;;;;;;5033101;28;19920;-83
2022/01/28 13:13:21;;;;;;;;;;;7.60;66.90;;;;;;5033648;28;19940;-81
2022/01/28 13:16:02;;;;;;;;;;;7.60;67.80;;;;;;5067494;28;20259;-80
2022/01/28 13:18:51;;;;;;;;;;;7.80;68.60;;;;;;5068247;28;19916;-81
2022/01/28 13:21:47;;;;;;;;;;;;;;;;;;;;;
2022/01/28 13:24:18;;;;;;;;;;;8.10;65.50;;;;;;5035419;28;20004;-79
2022/01/28 13:26:58;;;;;;;;;;;8.00;66.40;;;;;;5029392;28;19913;-81
2022/01/28 13:29:45;;;;;;;;;;;7.90;65.40;;;;;;5030957;28;20012;-81
2022/01/28 13:32:12;;;;;;;;;;;7.80;66.60;;;;;;5034705;28;19931;-81
2022/01/28 13:34:52;;;;;;;;;;;7.80;66.20;;;;;;5039227;28;19917;-82
2022/01/28 13:37:31;;;;;;;;;;;7.80;65.90;;;;;;5035740;28;19921;-82
2022/01/28 13:39:56;;;;;;;;;;;7.70;66.00;;;;;;5032515;28;19924;-82
2022/01/28 13:42:23;;;;;;;;;;;7.70;67.00;;;;;;5035027;28;19921;-82
2022/01/28 13:44:50;;;;;;;;;;;7.70;66.90;;;;;;5036904;28;19960;-83
2022/01/28 13:47:17;;;;;;;;;;;7.70;65.80;;;;;;5028161;28;20356;-82
2022/01/28 13:49:42;;;;;;;;;;;7.70;66.20;;;;;;5017444;28;20376;-79
2022/01/28 13:52:12;;;;;;;;;;;7.70;66.30;;;;;;5027598;28;19925;-82
2022/01/28 13:54:37;;;;;;;;;;;7.60;68.80;;;;;;5032854;28;20067;-82
2022/01/28 13:57:11;;;;;;;;;;;7.60;68.00;;;;;;5029946;28;20003;-85
2022/01/28 13:59:41;;;;;;;;;;;7.50;68.70;;;;;;5014900;28;19922;-86
2022/01/28 14:02:17;;;;;;;;;;;7.30;69.90;;;;;;5034149;28;19921;-84
2022/01/28 14:04:44;;;;;;;;;;;7.30;68.90;;;;;;5032855;28;19913;-80
2022/01/28 14:07:10;;;;;;;;;;;7.40;69.50;;;;;;5027168;28;19913;-80
2022/01/28 14:09:43;;;;;;;;;;;7.40;69.50;;;;;;5032838;28;20344;-81
2022/01/28 14:12:11;;;;;;;;;;;7.50;69.20;;;;;;5046824;28;19973;-80
2022/01/28 14:14:44;;;;;;;;;;;7.50;66.90;;;;;;5030769;28;19977;-81
2022/01/28 14:17:10;;;;;;;;;;;7.50;67.90;;;;;;5029582;28;19913;-80
2022/01/28 14:19:39;;;;;;;;;;;7.50;68.10;;;;;;5034303;28;19944;-82
2022/01/28 14:22:08;;;;;;;;;;;7.50;68.40;;;;;;5032122;28;19925;-81
2022/01/28 14:24:36;;;;;;;;;;;7.50;68.50;;;;;;5035171;28;19909;-81
2022/01/28 14:32:26;;;;;;;;;;;7.50;68.90;;;;;;5048279;28;20004;-82
2022/01/28 14:34:53;;;;;;;;;;;7.50;68.40;;;;;;5045332;28;19962;-82
2022/01/28 14:37:19;;;;;;;;;;;7.50;68.30;;;;;;5032332;28;20067;-82
2022/01/28 14:39:45;;;;;;;;;;;7.50;67.60;;;;;;5031490;28;20078;-85
2022/01/28 14:42:11;;;;;;;;;;;7.50;67.90;;;;;;5030868;28;20379;-81
2022/01/28 14:44:38;;;;;;;;;;;7.40;68.80;;;;;;5014950;28;19922;-82
2022/01/28 14:47:04;;;;;;;;;;;7.50;68.10;;;;;;5019901;28;19915;-82
2022/01/28 14:49:30;;;;;;;;;;;7.40;68.00;;;;;;5030912;28;19932;-80
2022/01/28 14:52:00;;;;;;;;;;;7.30;69.00;;;;;;5013242;28;20818;-83
2022/01/28 14:54:28;;;;;;;;;;;7.30;69.90;;;;;;5014028;28;20025;-83
2022/01/28 14:56:57;;;;;;;;;;;7.30;68.10;;;;;;5025230;28;20299;-83
2022/01/28 14:59:23;;;;;;;;;;;7.30;69.00;;;;;;5034420;23;19969;-78
2022/01/28 15:01:49;;;;;;;;;;;7.30;68.90;;;;;;5009785;28;19918;-79
2022/01/28 15:04:14;;;;;;;;;;;7.40;70.40;;;;;;5012293;28;19929;-81
2022/01/28 15:06:40;;;;;;;;;;;7.50;68.10;;;;;;5022641;28;20420;-81
2022/01/28 15:09:08;;;;;;;;;;;7.50;70.20;;;;;;5013665;28;19924;-81
2022/01/28 15:11:49;;;;;;;;;;;7.50;69.40;;;;;;5010961;28;20281;-81
2022/01/28 15:14:16;;;;;;;;;;;7.50;68.90;;;;;;5022531;28;19976;-80
2022/01/28 15:16:42;;;;;;;;;;;7.50;69.10;;;;;;5019550;28;19921;-81
2022/01/28 15:19:07;;;;;;;;;;;7.40;68.40;;;;;;5019993;28;19960;-81
2022/01/28 15:21:33;;;;;;;;;;;7.40;68.50;;;;;;5015921;28;19924;-81
2022/01/28 15:23:59;;;;;;;;;;;7.30;69.90;;;;;;5014831;28;20395;-79
2022/01/28 15:26:24;;;;;;;;;;;7.20;68.40;;;;;;5014617;28;19978;-79
2022/01/28 15:29:01;;;;;;;;;;;7.10;69.20;;;;;;5020156;28;19914;-79
2022/01/28 15:34:31;;;;;;;;;;;7.00;70.30;;;;;;4999270;28;19925;-80
2022/01/28 15:36:57;;;;;;;;;;;7.00;70.20;;;;;;5022723;28;20020;-80
2022/01/28 15:39:22;;;;;;;;;;;7.00;70.10;;;;;;5006292;28;19989;-80
2022/01/28 15:41:48;;;;;;;;;;;7.00;71.40;;;;;;5006806;28;19949;-80
2022/01/28 15:44:13;;;;;;;;;;;7.00;70.60;;;;;;5030785;28;19952;-80
2022/01/28 15:46:39;;;;;;;;;;;6.90;70.80;;;;;;5010285;28;19921;-78
2022/01/28 15:49:05;;;;;;;;;;;7.00;71.40;;;;;;5027654;28;19913;-79
2022/01/28 15:51:31;;;;;;;;;;;6.90;72.20;;;;;;5017648;28;19925;-80
2022/01/28 15:53:56;;;;;;;;;;;6.80;72.10;;;;;;5009297;28;19913;-81
2022/01/28 15:56:21;;;;;;;;;;;6.80;72.90;;;;;;5010963;28;20388;-79
2022/01/28 15:58:47;;;;;;;;;;;6.70;71.90;;;;;;5027370;28;20299;-80
2022/01/28 16:01:13;;;;;;;;;;;6.70;72.80;;;;;;5013468;28;19920;-80
2022/01/28 16:03:38;;;;;;;;;;;6.60;73.20;;;;;;5009313;28;19928;-80